Airfield :
LOGIN :

Register | Disclaimer

   EN    FR    IT 

 










Legend :    VFR   Marginal VFR   IFR   Intensive IFR   Very Intensive IFR
Visi :
Ceiling :
>= 8 km
>= 3000ft
5 to 8 km
1000 to 3000 ft
1500m to 5 km
500 to 1000 ft
800 to 1500m
200 to 500 ft
< 800m
< 200 ft
Symbols :   Thunderstorms  Fog  Heavy snow  Heavy precipitations  Wind > 20 kt
SIGMETs :     Misc.  Thunderstorms  Icing  Turbulence  Mountain Waves  Volcanic Ashes






- Airport Elevation : 182 ft
- IATA code : KCO


LTBQ - Cengiz Topel

CURRENT METAR :
  • 300950Z 28010KT 230V310 9999 FEW040 SCT120 16/09 Q1012 NOSIG

EXPIRED METARs :
  • 300850Z 27009KT 210V300 9999 FEW040 SCT100 16/08 Q1012 NOSIG
  • 300750Z 28011KT 230V310 9999 FEW040 BKN100 15/08 Q1012 NOSIG

TAF TAF LTBQ
Valid from the 30 at 09:00 until the 30 at 18:00 UTC


300740Z 3009/3018 27012KT 8000 SCT035 SCT100
PROB30
TEMPO 3012/3015 -SHRA BKN030 BKN080
BECMG 3014/3016 VRB02KT



MET'MAP, your aeronautical weather chart ! - Copyright ORBIFLY December 2007 - Disclaimer

ORBIFLY MET'MAP TEAM :

Programming & Development : Alexandra Zaïnal
Concept & original design : Baudouin d'Aumeries
Assistance for programming : Marc-Olivier Méhu
Technical & hardware support : Manuel Goepfert

Contact : metmap@orbifly.com




SOURCES & CREDITS :

   NOAA